sensor_id;sensor_type;location;lat;lon;timestamp;temperature;humidity
42663;DHT22;44330;51.360;6.686;2023-05-29T00:02:14;14.80;98.50
42663;DHT22;44330;51.360;6.686;2023-05-29T00:04:39;14.60;99.90
42663;DHT22;44330;51.360;6.686;2023-05-29T00:07:05;14.50;99.90
42663;DHT22;44330;51.360;6.686;2023-05-29T00:09:31;14.50;99.90
42663;DHT22;44330;51.360;6.686;2023-05-29T00:11:57;14.50;99.90
42663;DHT22;44330;51.360;6.686;2023-05-29T00:14:22;14.40;99.90
42663;DHT22;44330;51.360;6.686;2023-05-29T00:16:49;14.40;99.90
42663;DHT22;44330;51.360;6.686;2023-05-29T00:19:15;14.40;99.90
42663;DHT22;44330;51.360;6.686;2023-05-29T00:21:47;14.40;99.90
42663;DHT22;44330;51.360;6.686;2023-05-29T00:24:15;14.30;99.90
42663;DHT22;44330;51.360;6.686;2023-05-29T00:26:41;14.40;99.90
42663;DHT22;44330;51.360;6.686;2023-05-29T00:29:06;14.30;1.00
42663;DHT22;44330;51.360;6.686;2023-05-29T00:31:32;14.30;1.00
42663;DHT22;44330;51.360;6.686;2023-05-29T00:33:57;14.20;14.40
42663;DHT22;44330;51.360;6.686;2023-05-29T00:36:23;14.20;99.90
42663;DHT22;44330;51.360;6.686;2023-05-29T00:38:50;14.10;99.90
42663;DHT22;44330;51.360;6.686;2023-05-29T00:41:16;14.20;99.90
42663;DHT22;44330;51.360;6.686;2023-05-29T00:43:42;14.20;99.90
42663;DHT22;44330;51.360;6.686;2023-05-29T00:46:12;14.10;99.90
42663;DHT22;44330;51.360;6.686;2023-05-29T00:48:38;14.10;1.00
42663;DHT22;44330;51.360;6.686;2023-05-29T00:51:04;14.10;77.20
42663;DHT22;44330;51.360;6.686;2023-05-29T00:53:30;14.00;99.90
42663;DHT22;44330;51.360;6.686;2023-05-29T00:55:57;13.90;99.90
42663;DHT22;44330;51.360;6.686;2023-05-29T00:58:23;13.90;1.00
42663;DHT22;44330;51.360;6.686;2023-05-29T01:00:49;13.90;99.90
42663;DHT22;44330;51.360;6.686;2023-05-29T01:03:16;13.80;99.90
42663;DHT22;44330;51.360;6.686;2023-05-29T01:05:42;13.60;99.90
42663;DHT22;44330;51.360;6.686;2023-05-29T01:08:07;13.50;4.30
42663;DHT22;44330;51.360;6.686;2023-05-29T01:10:34;13.50;99.90
42663;DHT22;44330;51.360;6.686;2023-05-29T01:13:15;13.50;99.90
42663;DHT22;44330;51.360;6.686;2023-05-29T01:15:58;13.40;99.90
42663;DHT22;44330;51.360;6.686;2023-05-29T01:24:17;13.20;99.90
42663;DHT22;44330;51.360;6.686;2023-05-29T01:26:52;13.20;99.90
42663;DHT22;44330;51.360;6.686;2023-05-29T01:29:29;13.20;99.90
42663;DHT22;44330;51.360;6.686;2023-05-29T01:31:58;13.00;99.90
42663;DHT22;44330;51.360;6.686;2023-05-29T01:34:24;12.90;99.90
42663;DHT22;44330;51.360;6.686;2023-05-29T01:36:50;13.00;99.90
42663;DHT22;44330;51.360;6.686;2023-05-29T01:39:16;12.80;99.90
42663;DHT22;44330;51.360;6.686;2023-05-29T01:41:44;12.80;99.90
42663;DHT22;44330;51.360;6.686;2023-05-29T01:44:10;12.70;99.90
42663;DHT22;44330;51.360;6.686;2023-05-29T01:46:38;12.60;99.90
42663;DHT22;44330;51.360;6.686;2023-05-29T01:49:05;12.50;99.90
42663;DHT22;44330;51.360;6.686;2023-05-29T01:51:30;12.50;99.90
42663;DHT22;44330;51.360;6.686;2023-05-29T01:53:57;12.40;99.90
42663;DHT22;44330;51.360;6.686;2023-05-29T01:56:23;12.40;99.90
42663;DHT22;44330;51.360;6.686;2023-05-29T01:58:50;12.40;44.60
42663;DHT22;44330;51.360;6.686;2023-05-29T02:01:16;12.30;99.90
42663;DHT22;44330;51.360;6.686;2023-05-29T02:03:42;12.30;1.00
42663;DHT22;44330;51.360;6.686;2023-05-29T02:06:07;12.30;99.90
42663;DHT22;44330;51.360;6.686;2023-05-29T02:08:33;12.30;99.90
42663;DHT22;44330;51.360;6.686;2023-05-29T02:10:58;12.20;99.90
42663;DHT22;44330;51.360;6.686;2023-05-29T02:13:24;12.20;99.90
42663;DHT22;44330;51.360;6.686;2023-05-29T02:15:50;12.20;99.90
42663;DHT22;44330;51.360;6.686;2023-05-29T02:18:16;12.20;99.90
42663;DHT22;44330;51.360;6.686;2023-05-29T02:20:42;12.00;1.00
42663;DHT22;44330;51.360;6.686;2023-05-29T02:23:11;11.90;1.00
42663;DHT22;44330;51.360;6.686;2023-05-29T02:25:37;11.90;1.00
42663;DHT22;44330;51.360;6.686;2023-05-29T02:28:04;11.80;1.00
42663;DHT22;44330;51.360;6.686;2023-05-29T02:30:30;11.80;99.90
42663;DHT22;44330;51.360;6.686;2023-05-29T02:32:56;11.80;99.90
42663;DHT22;44330;51.360;6.686;2023-05-29T02:35:21;11.70;99.90
42663;DHT22;44330;51.360;6.686;2023-05-29T02:37:52;11.80;99.90
42663;DHT22;44330;51.360;6.686;2023-05-29T02:40:18;11.70;99.90
42663;DHT22;44330;51.360;6.686;2023-05-29T02:42:44;11.60;99.90
42663;DHT22;44330;51.360;6.686;2023-05-29T02:45:09;11.60;99.90
42663;DHT22;44330;51.360;6.686;2023-05-29T02:47:36;11.60;99.90
42663;DHT22;44330;51.360;6.686;2023-05-29T02:50:02;11.60;99.90
42663;DHT22;44330;51.360;6.686;2023-05-29T02:52:28;11.50;99.90
42663;DHT22;44330;51.360;6.686;2023-05-29T02:54:55;11.50;99.90
42663;DHT22;44330;51.360;6.686;2023-05-29T02:57:21;11.50;99.90
42663;DHT22;44330;51.360;6.686;2023-05-29T02:59:46;11.60;99.90
42663;DHT22;44330;51.360;6.686;2023-05-29T03:02:12;11.50;99.90
42663;DHT22;44330;51.360;6.686;2023-05-29T03:04:38;11.50;99.90
42663;DHT22;44330;51.360;6.686;2023-05-29T03:07:04;11.50;99.90
42663;DHT22;44330;51.360;6.686;2023-05-29T03:09:29;11.50;99.90
42663;DHT22;44330;51.360;6.686;2023-05-29T03:11:55;11.40;99.90
42663;DHT22;44330;51.360;6.686;2023-05-29T03:14:20;11.40;99.90
42663;DHT22;44330;51.360;6.686;2023-05-29T03:16:47;11.30;99.90
42663;DHT22;44330;51.360;6.686;2023-05-29T03:19:12;11.30;1.00
42663;DHT22;44330;51.360;6.686;2023-05-29T03:21:38;11.30;1.00
42663;DHT22;44330;51.360;6.686;2023-05-29T03:24:04;11.20;1.00
42663;DHT22;44330;51.360;6.686;2023-05-29T03:26:29;11.20;1.00
42663;DHT22;44330;51.360;6.686;2023-05-29T03:28:55;11.20;99.90
42663;DHT22;44330;51.360;6.686;2023-05-29T03:31:21;11.20;99.90
42663;DHT22;44330;51.360;6.686;2023-05-29T03:33:47;11.20;99.90
42663;DHT22;44330;51.360;6.686;2023-05-29T03:36:13;11.20;99.90
42663;DHT22;44330;51.360;6.686;2023-05-29T03:38:39;11.20;1.00
42663;DHT22;44330;51.360;6.686;2023-05-29T03:41:05;11.20;1.00
42663;DHT22;44330;51.360;6.686;2023-05-29T03:43:30;11.10;1.00
42663;DHT22;44330;51.360;6.686;2023-05-29T03:45:56;11.20;1.00
42663;DHT22;44330;51.360;6.686;2023-05-29T03:48:22;11.10;1.00
42663;DHT22;44330;51.360;6.686;2023-05-29T03:50:47;11.10;1.00
42663;DHT22;44330;51.360;6.686;2023-05-29T03:53:13;11.10;1.00
42663;DHT22;44330;51.360;6.686;2023-05-29T03:55:38;11.00;1.00
42663;DHT22;44330;51.360;6.686;2023-05-29T03:58:04;11.00;1.00
42663;DHT22;44330;51.360;6.686;2023-05-29T04:00:30;11.00;1.00
42663;DHT22;44330;51.360;6.686;2023-05-29T04:02:56;10.90;1.00
42663;DHT22;44330;51.360;6.686;2023-05-29T04:05:22;10.80;1.00
42663;DHT22;44330;51.360;6.686;2023-05-29T04:07:47;10.70;1.00
42663;DHT22;44330;51.360;6.686;2023-05-29T04:10:13;10.80;1.00
42663;DHT22;44330;51.360;6.686;2023-05-29T04:12:38;10.80;1.00
42663;DHT22;44330;51.360;6.686;2023-05-29T04:15:05;10.90;1.00
42663;DHT22;44330;51.360;6.686;2023-05-29T04:17:30;10.80;1.00
42663;DHT22;44330;51.360;6.686;2023-05-29T04:19:56;10.90;1.00
42663;DHT22;44330;51.360;6.686;2023-05-29T04:22:21;10.90;1.00
42663;DHT22;44330;51.360;6.686;2023-05-29T04:24:47;10.80;1.00
42663;DHT22;44330;51.360;6.686;2023-05-29T04:27:13;10.80;1.00
42663;DHT22;44330;51.360;6.686;2023-05-29T04:29:39;10.80;1.00
42663;DHT22;44330;51.360;6.686;2023-05-29T04:32:07;10.80;1.00
42663;DHT22;44330;51.360;6.686;2023-05-29T04:34:35;10.80;1.00
42663;DHT22;44330;51.360;6.686;2023-05-29T04:37:01;10.80;1.00
42663;DHT22;44330;51.360;6.686;2023-05-29T04:39:28;10.90;1.00
42663;DHT22;44330;51.360;6.686;2023-05-29T04:41:54;10.90;1.00
42663;DHT22;44330;51.360;6.686;2023-05-29T04:44:21;10.90;1.00
42663;DHT22;44330;51.360;6.686;2023-05-29T04:46:47;10.90;1.00
42663;DHT22;44330;51.360;6.686;2023-05-29T04:49:13;10.90;1.00
42663;DHT22;44330;51.360;6.686;2023-05-29T04:51:39;10.90;1.00
42663;DHT22;44330;51.360;6.686;2023-05-29T04:54:08;11.00;1.00
42663;DHT22;44330;51.360;6.686;2023-05-29T04:56:36;11.00;1.00
42663;DHT22;44330;51.360;6.686;2023-05-29T04:59:03;11.10;1.00
42663;DHT22;44330;51.360;6.686;2023-05-29T05:01:28;11.00;1.00
42663;DHT22;44330;51.360;6.686;2023-05-29T05:03:54;11.10;1.00
42663;DHT22;44330;51.360;6.686;2023-05-29T05:06:23;11.10;1.00
42663;DHT22;44330;51.360;6.686;2023-05-29T05:08:51;11.10;1.00
42663;DHT22;44330;51.360;6.686;2023-05-29T05:11:22;11.30;1.00
42663;DHT22;44330;51.360;6.686;2023-05-29T05:13:48;11.20;1.00
42663;DHT22;44330;51.360;6.686;2023-05-29T05:16:13;11.20;1.00
42663;DHT22;44330;51.360;6.686;2023-05-29T05:18:39;11.30;1.00
42663;DHT22;44330;51.360;6.686;2023-05-29T05:21:04;11.40;1.00
42663;DHT22;44330;51.360;6.686;2023-05-29T05:23:31;11.30;1.00
42663;DHT22;44330;51.360;6.686;2023-05-29T05:25:56;11.40;1.00
42663;DHT22;44330;51.360;6.686;2023-05-29T05:28:22;11.40;1.00
42663;DHT22;44330;51.360;6.686;2023-05-29T05:30:48;11.50;1.00
42663;DHT22;44330;51.360;6.686;2023-05-29T05:33:13;11.50;1.00
42663;DHT22;44330;51.360;6.686;2023-05-29T05:35:39;11.60;1.00
42663;DHT22;44330;51.360;6.686;2023-05-29T05:38:04;11.60;1.00
42663;DHT22;44330;51.360;6.686;2023-05-29T05:40:30;11.70;1.00
42663;DHT22;44330;51.360;6.686;2023-05-29T05:42:56;11.80;1.00
42663;DHT22;44330;51.360;6.686;2023-05-29T05:45:21;11.80;99.90
42663;DHT22;44330;51.360;6.686;2023-05-29T05:47:47;11.80;1.00
42663;DHT22;44330;51.360;6.686;2023-05-29T05:50:13;11.90;1.00
42663;DHT22;44330;51.360;6.686;2023-05-29T05:52:39;12.00;99.90
42663;DHT22;44330;51.360;6.686;2023-05-29T05:55:05;12.10;99.90
42663;DHT22;44330;51.360;6.686;2023-05-29T05:57:31;12.10;99.90
42663;DHT22;44330;51.360;6.686;2023-05-29T06:00:02;12.20;99.90
42663;DHT22;44330;51.360;6.686;2023-05-29T06:02:31;12.40;99.90
42663;DHT22;44330;51.360;6.686;2023-05-29T06:04:56;12.50;99.90
42663;DHT22;44330;51.360;6.686;2023-05-29T06:07:22;12.60;1.00
42663;DHT22;44330;51.360;6.686;2023-05-29T06:09:48;12.60;99.90
42663;DHT22;44330;51.360;6.686;2023-05-29T06:12:14;12.60;1.00
42663;DHT22;44330;51.360;6.686;2023-05-29T06:14:39;12.60;1.00
42663;DHT22;44330;51.360;6.686;2023-05-29T06:17:05;12.70;99.90
42663;DHT22;44330;51.360;6.686;2023-05-29T06:19:30;12.80;99.90
42663;DHT22;44330;51.360;6.686;2023-05-29T06:21:56;13.00;10.90
42663;DHT22;44330;51.360;6.686;2023-05-29T06:24:22;13.00;67.10
42663;DHT22;44330;51.360;6.686;2023-05-29T06:26:47;13.00;99.90
42663;DHT22;44330;51.360;6.686;2023-05-29T06:29:13;13.10;99.90
42663;DHT22;44330;51.360;6.686;2023-05-29T06:31:38;13.30;99.90
42663;DHT22;44330;51.360;6.686;2023-05-29T06:34:04;13.40;1.00
42663;DHT22;44330;51.360;6.686;2023-05-29T06:36:31;13.40;99.90
42663;DHT22;44330;51.360;6.686;2023-05-29T06:38:57;13.30;99.90
42663;DHT22;44330;51.360;6.686;2023-05-29T06:41:23;13.50;99.90
42663;DHT22;44330;51.360;6.686;2023-05-29T06:43:49;13.70;78.30
42663;DHT22;44330;51.360;6.686;2023-05-29T06:46:15;13.80;99.90
42663;DHT22;44330;51.360;6.686;2023-05-29T06:48:40;14.00;4.50
42663;DHT22;44330;51.360;6.686;2023-05-29T06:51:06;14.10;99.90
42663;DHT22;44330;51.360;6.686;2023-05-29T06:53:40;14.20;99.90
42663;DHT22;44330;51.360;6.686;2023-05-29T06:56:06;14.30;95.00
42663;DHT22;44330;51.360;6.686;2023-05-29T06:58:33;14.40;63.20
42663;DHT22;44330;51.360;6.686;2023-05-29T07:00:59;14.70;16.30
42663;DHT22;44330;51.360;6.686;2023-05-29T07:03:25;14.90;7.10
42663;DHT22;44330;51.360;6.686;2023-05-29T07:05:51;15.00;99.90
42663;DHT22;44330;51.360;6.686;2023-05-29T07:08:17;14.80;99.90
42663;DHT22;44330;51.360;6.686;2023-05-29T07:10:42;14.70;99.90
42663;DHT22;44330;51.360;6.686;2023-05-29T07:13:08;14.60;99.90
42663;DHT22;44330;51.360;6.686;2023-05-29T07:15:34;14.60;99.90
42663;DHT22;44330;51.360;6.686;2023-05-29T07:17:59;14.80;1.00
42663;DHT22;44330;51.360;6.686;2023-05-29T07:20:25;14.90;99.90
42663;DHT22;44330;51.360;6.686;2023-05-29T07:22:51;15.20;99.90
42663;DHT22;44330;51.360;6.686;2023-05-29T07:25:17;15.50;99.90
42663;DHT22;44330;51.360;6.686;2023-05-29T07:27:42;15.40;99.90
42663;DHT22;44330;51.360;6.686;2023-05-29T07:30:08;15.50;99.90
42663;DHT22;44330;51.360;6.686;2023-05-29T07:32:34;15.60;99.90
42663;DHT22;44330;51.360;6.686;2023-05-29T07:35:00;15.70;99.90
42663;DHT22;44330;51.360;6.686;2023-05-29T07:37:25;15.90;99.90
42663;DHT22;44330;51.360;6.686;2023-05-29T07:39:51;15.80;99.90
42663;DHT22;44330;51.360;6.686;2023-05-29T07:42:16;15.70;99.90
42663;DHT22;44330;51.360;6.686;2023-05-29T07:44:42;16.20;99.90
42663;DHT22;44330;51.360;6.686;2023-05-29T07:47:09;16.30;99.90
42663;DHT22;44330;51.360;6.686;2023-05-29T07:49:36;16.40;99.90
42663;DHT22;44330;51.360;6.686;2023-05-29T07:52:02;16.40;99.90
42663;DHT22;44330;51.360;6.686;2023-05-29T07:54:28;16.60;99.90
42663;DHT22;44330;51.360;6.686;2023-05-29T07:56:53;17.00;99.90
42663;DHT22;44330;51.360;6.686;2023-05-29T07:59:20;17.10;99.90
42663;DHT22;44330;51.360;6.686;2023-05-29T08:01:46;17.10;99.90
42663;DHT22;44330;51.360;6.686;2023-05-29T08:04:12;17.20;76.40
42663;DHT22;44330;51.360;6.686;2023-05-29T08:06:38;17.10;76.70
42663;DHT22;44330;51.360;6.686;2023-05-29T08:09:07;16.70;93.40
42663;DHT22;44330;51.360;6.686;2023-05-29T08:11:33;16.50;98.10
42663;DHT22;44330;51.360;6.686;2023-05-29T08:13:58;16.70;99.90
42663;DHT22;44330;51.360;6.686;2023-05-29T08:16:25;16.60;99.40
42663;DHT22;44330;51.360;6.686;2023-05-29T08:18:52;16.40;99.40
42663;DHT22;44330;51.360;6.686;2023-05-29T08:21:18;16.70;95.10
42663;DHT22;44330;51.360;6.686;2023-05-29T08:23:44;16.70;99.90
42663;DHT22;44330;51.360;6.686;2023-05-29T08:26:09;17.00;99.90
42663;DHT22;44330;51.360;6.686;2023-05-29T08:28:35;17.20;78.90
42663;DHT22;44330;51.360;6.686;2023-05-29T08:31:00;17.20;99.30
42663;DHT22;44330;51.360;6.686;2023-05-29T08:33:26;17.00;74.20
42663;DHT22;44330;51.360;6.686;2023-05-29T08:35:52;17.30;84.00
42663;DHT22;44330;51.360;6.686;2023-05-29T08:38:17;17.60;54.80
42663;DHT22;44330;51.360;6.686;2023-05-29T08:40:43;17.80;92.90
42663;DHT22;44330;51.360;6.686;2023-05-29T08:43:21;17.90;25.70
42663;DHT22;44330;51.360;6.686;2023-05-29T08:45:47;17.90;15.50
42663;DHT22;44330;51.360;6.686;2023-05-29T08:48:18;18.30;16.70
42663;DHT22;44330;51.360;6.686;2023-05-29T08:50:46;18.00;7.10
42663;DHT22;44330;51.360;6.686;2023-05-29T08:53:13;17.70;11.30
42663;DHT22;44330;51.360;6.686;2023-05-29T08:55:39;18.10;1.00
42663;DHT22;44330;51.360;6.686;2023-05-29T08:58:07;18.20;1.20
42663;DHT22;44330;51.360;6.686;2023-05-29T09:00:33;18.60;19.20
42663;DHT22;44330;51.360;6.686;2023-05-29T09:02:59;19.00;1.00
42663;DHT22;44330;51.360;6.686;2023-05-29T09:05:25;19.20;1.00
42663;DHT22;44330;51.360;6.686;2023-05-29T09:07:53;18.80;1.00
42663;DHT22;44330;51.360;6.686;2023-05-29T09:10:19;18.90;1.00
42663;DHT22;44330;51.360;6.686;2023-05-29T09:12:47;19.30;1.00
42663;DHT22;44330;51.360;6.686;2023-05-29T09:15:19;18.70;1.00
42663;DHT22;44330;51.360;6.686;2023-05-29T09:17:52;18.50;1.00
42663;DHT22;44330;51.360;6.686;2023-05-29T09:20:22;18.40;1.00
42663;DHT22;44330;51.360;6.686;2023-05-29T09:23:05;18.30;1.00
42663;DHT22;44330;51.360;6.686;2023-05-29T09:25:33;18.20;1.00
42663;DHT22;44330;51.360;6.686;2023-05-29T09:28:01;18.30;1.00
42663;DHT22;44330;51.360;6.686;2023-05-29T09:30:38;18.70;1.00
42663;DHT22;44330;51.360;6.686;2023-05-29T09:33:05;19.00;1.00
42663;DHT22;44330;51.360;6.686;2023-05-29T09:35:46;18.90;1.00
42663;DHT22;44330;51.360;6.686;2023-05-29T09:38:13;18.90;1.00
42663;DHT22;44330;51.360;6.686;2023-05-29T09:40:40;19.00;1.00
42663;DHT22;44330;51.360;6.686;2023-05-29T09:43:11;19.30;1.00
42663;DHT22;44330;51.360;6.686;2023-05-29T09:45:39;18.80;1.00
42663;DHT22;44330;51.360;6.686;2023-05-29T09:48:06;18.40;1.00
42663;DHT22;44330;51.360;6.686;2023-05-29T09:50:33;19.00;1.00
42663;DHT22;44330;51.360;6.686;2023-05-29T09:52:59;19.20;1.00
42663;DHT22;44330;51.360;6.686;2023-05-29T09:55:27;19.40;99.90
42663;DHT22;44330;51.360;6.686;2023-05-29T09:57:54;18.90;99.90
42663;DHT22;44330;51.360;6.686;2023-05-29T10:00:21;19.10;99.90
42663;DHT22;44330;51.360;6.686;2023-05-29T10:02:48;19.30;99.90
42663;DHT22;44330;51.360;6.686;2023-05-29T10:05:14;19.50;99.90
42663;DHT22;44330;51.360;6.686;2023-05-29T10:07:44;19.30;99.90
42663;DHT22;44330;51.360;6.686;2023-05-29T10:10:14;19.10;99.90
42663;DHT22;44330;51.360;6.686;2023-05-29T10:12:48;19.40;99.90
42663;DHT22;44330;51.360;6.686;2023-05-29T10:15:15;19.70;99.90
42663;DHT22;44330;51.360;6.686;2023-05-29T10:17:57;19.80;99.90
42663;DHT22;44330;51.360;6.686;2023-05-29T10:20:44;20.10;99.90
42663;DHT22;44330;51.360;6.686;2023-05-29T10:23:25;20.50;99.90
42663;DHT22;44330;51.360;6.686;2023-05-29T10:25:53;20.80;99.90
42663;DHT22;44330;51.360;6.686;2023-05-29T10:28:20;20.10;99.90
42663;DHT22;44330;51.360;6.686;2023-05-29T10:31:10;20.30;99.90
42663;DHT22;44330;51.360;6.686;2023-05-29T10:34:07;20.50;99.90
42663;DHT22;44330;51.360;6.686;2023-05-29T10:36:38;20.60;99.90
42663;DHT22;44330;51.360;6.686;2023-05-29T10:39:05;20.80;99.90
42663;DHT22;44330;51.360;6.686;2023-05-29T10:41:33;21.20;99.90
42663;DHT22;44330;51.360;6.686;2023-05-29T10:44:02;20.90;99.90
42663;DHT22;44330;51.360;6.686;2023-05-29T10:49:22;20.10;99.90
42663;DHT22;44330;51.360;6.686;2023-05-29T10:51:48;19.90;99.90
42663;DHT22;44330;51.360;6.686;2023-05-29T10:54:14;19.50;99.90
42663;DHT22;44330;51.360;6.686;2023-05-29T10:56:44;19.50;99.90
42663;DHT22;44330;51.360;6.686;2023-05-29T10:59:10;19.60;99.90
42663;DHT22;44330;51.360;6.686;2023-05-29T11:01:38;19.80;99.90
42663;DHT22;44330;51.360;6.686;2023-05-29T11:04:25;20.10;99.90
42663;DHT22;44330;51.360;6.686;2023-05-29T11:06:52;20.30;99.90
42663;DHT22;44330;51.360;6.686;2023-05-29T11:09:27;20.50;99.90
42663;DHT22;44330;51.360;6.686;2023-05-29T11:15:10;21.10;99.90
42663;DHT22;44330;51.360;6.686;2023-05-29T11:20:07;21.20;99.90
42663;DHT22;44330;51.360;6.686;2023-05-29T11:25:15;20.80;99.90
42663;DHT22;44330;51.360;6.686;2023-05-29T11:27:43;20.70;99.90
42663;DHT22;44330;51.360;6.686;2023-05-29T11:30:09;20.90;99.90
42663;DHT22;44330;51.360;6.686;2023-05-29T11:32:36;21.10;99.90
42663;DHT22;44330;51.360;6.686;2023-05-29T11:35:08;21.10;99.90
42663;DHT22;44330;51.360;6.686;2023-05-29T11:37:44;20.60;99.90
42663;DHT22;44330;51.360;6.686;2023-05-29T11:40:12;20.40;99.90
42663;DHT22;44330;51.360;6.686;2023-05-29T11:42:56;20.90;99.90
42663;DHT22;44330;51.360;6.686;2023-05-29T11:45:22;21.10;99.90
42663;DHT22;44330;51.360;6.686;2023-05-29T11:48:02;21.50;99.90
42663;DHT22;44330;51.360;6.686;2023-05-29T11:50:32;21.60;99.90
42663;DHT22;44330;51.360;6.686;2023-05-29T11:52:59;21.20;99.90
42663;DHT22;44330;51.360;6.686;2023-05-29T11:55:26;20.90;99.90
42663;DHT22;44330;51.360;6.686;2023-05-29T11:58:03;21.30;99.90
42663;DHT22;44330;51.360;6.686;2023-05-29T12:00:36;21.50;99.90
42663;DHT22;44330;51.360;6.686;2023-05-29T12:03:03;21.50;99.90
42663;DHT22;44330;51.360;6.686;2023-05-29T12:05:30;21.10;99.90
42663;DHT22;44330;51.360;6.686;2023-05-29T12:07:57;21.60;99.90
42663;DHT22;44330;51.360;6.686;2023-05-29T12:10:24;22.00;99.90
42663;DHT22;44330;51.360;6.686;2023-05-29T12:12:57;22.00;99.90
42663;DHT22;44330;51.360;6.686;2023-05-29T12:15:23;21.30;99.90
42663;DHT22;44330;51.360;6.686;2023-05-29T17:54:54;19.30;99.90
42663;DHT22;44330;51.360;6.686;2023-05-29T17:57:32;19.20;99.90
42663;DHT22;44330;51.360;6.686;2023-05-29T17:59:58;19.20;99.90
42663;DHT22;44330;51.360;6.686;2023-05-29T18:02:32;19.20;99.90
42663;DHT22;44330;51.360;6.686;2023-05-29T18:08:45;19.00;99.90
42663;DHT22;44330;51.360;6.686;2023-05-29T18:11:42;19.00;99.90
42663;DHT22;44330;51.360;6.686;2023-05-29T19:01:00;18.00;99.90
42663;DHT22;44330;51.360;6.686;2023-05-29T19:03:32;17.90;99.90
42663;DHT22;44330;51.360;6.686;2023-05-29T19:06:05;17.80;99.90
42663;DHT22;44330;51.360;6.686;2023-05-29T19:08:34;17.80;99.90
42663;DHT22;44330;51.360;6.686;2023-05-29T19:11:17;17.80;99.90
42663;DHT22;44330;51.360;6.686;2023-05-29T19:13:51;17.70;99.90
42663;DHT22;44330;51.360;6.686;2023-05-29T19:16:42;17.70;99.90
42663;DHT22;44330;51.360;6.686;2023-05-29T19:19:43;17.70;99.90
42663;DHT22;44330;51.360;6.686;2023-05-29T19:22:14;17.60;99.90
42663;DHT22;44330;51.360;6.686;2023-05-29T19:24:53;17.60;99.90
42663;DHT22;44330;51.360;6.686;2023-05-29T19:27:23;17.50;99.90
42663;DHT22;44330;51.360;6.686;2023-05-29T19:29:53;17.40;99.90
42663;DHT22;44330;51.360;6.686;2023-05-29T19:32:22;17.40;99.90
42663;DHT22;44330;51.360;6.686;2023-05-29T20:03:16;16.60;99.90
42663;DHT22;44330;51.360;6.686;2023-05-29T20:05:42;16.60;99.90
42663;DHT22;44330;51.360;6.686;2023-05-29T20:08:08;16.60;99.90
42663;DHT22;44330;51.360;6.686;2023-05-29T20:10:33;16.50;99.90
42663;DHT22;44330;51.360;6.686;2023-05-29T20:12:59;16.50;99.90
42663;DHT22;44330;51.360;6.686;2023-05-29T20:18:41;16.40;99.90
42663;DHT22;44330;51.360;6.686;2023-05-29T20:21:07;16.30;99.90
42663;DHT22;44330;51.360;6.686;2023-05-29T20:23:34;16.20;99.90
42663;DHT22;44330;51.360;6.686;2023-05-29T20:26:00;16.10;99.90
42663;DHT22;44330;51.360;6.686;2023-05-29T20:28:25;16.10;99.90
42663;DHT22;44330;51.360;6.686;2023-05-29T20:30:52;16.00;99.90
42663;DHT22;44330;51.360;6.686;2023-05-29T20:33:18;16.00;99.90
42663;DHT22;44330;51.360;6.686;2023-05-29T20:35:44;16.00;99.90
42663;DHT22;44330;51.360;6.686;2023-05-29T20:38:10;15.90;99.90
42663;DHT22;44330;51.360;6.686;2023-05-29T20:40:39;15.90;99.90
42663;DHT22;44330;51.360;6.686;2023-05-29T20:43:05;15.80;99.90
42663;DHT22;44330;51.360;6.686;2023-05-29T20:45:31;15.80;99.90
42663;DHT22;44330;51.360;6.686;2023-05-29T20:47:57;15.70;99.90
42663;DHT22;44330;51.360;6.686;2023-05-29T20:50:24;15.80;99.90
42663;DHT22;44330;51.360;6.686;2023-05-29T20:52:54;15.70;99.90
42663;DHT22;44330;51.360;6.686;2023-05-29T20:55:21;15.70;99.90
42663;DHT22;44330;51.360;6.686;2023-05-29T20:57:46;15.60;99.90
42663;DHT22;44330;51.360;6.686;2023-05-29T21:00:12;15.60;99.90
42663;DHT22;44330;51.360;6.686;2023-05-29T21:02:39;15.50;99.90
42663;DHT22;44330;51.360;6.686;2023-05-29T21:05:06;15.50;99.90
42663;DHT22;44330;51.360;6.686;2023-05-29T21:07:34;15.40;99.90
42663;DHT22;44330;51.360;6.686;2023-05-29T21:10:07;15.40;99.90
42663;DHT22;44330;51.360;6.686;2023-05-29T21:12:34;15.40;99.90
42663;DHT22;44330;51.360;6.686;2023-05-29T21:15:00;15.30;99.90
42663;DHT22;44330;51.360;6.686;2023-05-29T21:17:26;15.20;99.90
42663;DHT22;44330;51.360;6.686;2023-05-29T21:19:52;15.10;99.90
42663;DHT22;44330;51.360;6.686;2023-05-29T21:22:17;15.00;99.90
42663;DHT22;44330;51.360;6.686;2023-05-29T21:24:44;15.00;99.90
42663;DHT22;44330;51.360;6.686;2023-05-29T21:27:09;14.70;99.90
42663;DHT22;44330;51.360;6.686;2023-05-29T21:29:35;14.80;99.90
42663;DHT22;44330;51.360;6.686;2023-05-29T21:32:01;14.70;99.90
42663;DHT22;44330;51.360;6.686;2023-05-29T21:34:29;14.70;99.90
42663;DHT22;44330;51.360;6.686;2023-05-29T21:36:59;14.70;99.90
42663;DHT22;44330;51.360;6.686;2023-05-29T21:39:25;14.80;99.90
42663;DHT22;44330;51.360;6.686;2023-05-29T21:41:50;14.70;99.90
42663;DHT22;44330;51.360;6.686;2023-05-29T21:44:16;14.60;99.90
42663;DHT22;44330;51.360;6.686;2023-05-29T21:46:43;14.50;99.90
42663;DHT22;44330;51.360;6.686;2023-05-29T21:49:09;14.40;99.90
42663;DHT22;44330;51.360;6.686;2023-05-29T21:51:34;14.30;99.90
42663;DHT22;44330;51.360;6.686;2023-05-29T21:54:01;14.20;99.90
42663;DHT22;44330;51.360;6.686;2023-05-29T21:56:26;14.20;99.90
42663;DHT22;44330;51.360;6.686;2023-05-29T21:58:53;14.10;99.90
42663;DHT22;44330;51.360;6.686;2023-05-29T22:01:19;14.00;99.90
42663;DHT22;44330;51.360;6.686;2023-05-29T22:03:45;14.00;99.90
42663;DHT22;44330;51.360;6.686;2023-05-29T22:06:11;13.90;99.90
42663;DHT22;44330;51.360;6.686;2023-05-29T22:08:45;13.90;99.90
42663;DHT22;44330;51.360;6.686;2023-05-29T22:11:11;13.90;99.90
42663;DHT22;44330;51.360;6.686;2023-05-29T22:13:36;13.80;99.90
42663;DHT22;44330;51.360;6.686;2023-05-29T22:16:03;13.80;99.90
42663;DHT22;44330;51.360;6.686;2023-05-29T22:18:29;13.80;99.90
42663;DHT22;44330;51.360;6.686;2023-05-29T22:20:55;13.80;99.90
42663;DHT22;44330;51.360;6.686;2023-05-29T22:23:20;13.70;99.90
42663;DHT22;44330;51.360;6.686;2023-05-29T22:25:47;13.60;99.90
42663;DHT22;44330;51.360;6.686;2023-05-29T22:28:14;13.50;99.90
42663;DHT22;44330;51.360;6.686;2023-05-29T22:30:39;13.40;99.90
42663;DHT22;44330;51.360;6.686;2023-05-29T22:33:05;13.30;99.90
42663;DHT22;44330;51.360;6.686;2023-05-29T22:35:31;13.30;99.90
42663;DHT22;44330;51.360;6.686;2023-05-29T22:37:56;13.10;99.90
42663;DHT22;44330;51.360;6.686;2023-05-29T22:40:22;13.10;99.90
42663;DHT22;44330;51.360;6.686;2023-05-29T22:42:48;13.10;99.90
42663;DHT22;44330;51.360;6.686;2023-05-29T22:45:14;13.10;99.90
42663;DHT22;44330;51.360;6.686;2023-05-29T22:47:41;12.90;99.90
42663;DHT22;44330;51.360;6.686;2023-05-29T22:50:09;12.80;99.90
42663;DHT22;44330;51.360;6.686;2023-05-29T22:52:34;12.80;99.90
42663;DHT22;44330;51.360;6.686;2023-05-29T22:55:02;12.80;99.90